createdAt,value
2023-03-10T00:00:12.678Z,16.23
2023-03-10T00:02:39.342Z,16.03
2023-03-10T00:05:06.315Z,16.07
2023-03-10T00:07:32.773Z,15.07
2023-03-10T00:09:59.207Z,16.23
2023-03-10T00:12:27.933Z,16.40
2023-03-10T00:14:55.393Z,16.40
2023-03-10T00:17:22.245Z,17.00
2023-03-10T00:19:48.686Z,15.93
2023-03-10T00:22:15.155Z,18.10
2023-03-10T00:24:41.595Z,16.37
2023-03-10T00:27:08.076Z,16.60
2023-03-10T00:29:34.571Z,16.67
2023-03-10T00:32:01.250Z,17.13
2023-03-10T00:34:27.726Z,17.00
2023-03-10T00:36:54.203Z,17.00
2023-03-10T00:39:20.653Z,16.93
2023-03-10T00:41:48.498Z,19.10
2023-03-10T00:44:16.224Z,17.40
2023-03-10T00:46:42.813Z,18.10
2023-03-10T00:49:10.932Z,18.33
2023-03-10T00:51:37.375Z,18.77
2023-03-10T00:54:03.967Z,18.13
2023-03-10T00:56:30.946Z,19.63
2023-03-10T00:59:00.523Z,18.77
2023-03-10T01:01:29.358Z,19.57
2023-03-10T01:03:57.645Z,20.10
2023-03-10T01:06:24.996Z,19.37
2023-03-10T01:08:51.601Z,20.63
2023-03-10T01:11:21.614Z,19.87
2023-03-10T01:13:48.346Z,21.27
2023-03-10T01:16:15.553Z,22.97
2023-03-10T01:18:43.742Z,24.17
2023-03-10T01:21:21.824Z,23.47
2023-03-10T01:23:48.605Z,23.33
2023-03-10T01:26:17.236Z,25.17
2023-03-10T01:28:46.124Z,23.73
2023-03-10T01:31:12.868Z,25.87
2023-03-10T01:33:41.194Z,23.67
2023-03-10T01:36:12.574Z,23.43
2023-03-10T01:38:39.625Z,24.03
2023-03-10T01:41:07.842Z,23.13
2023-03-10T01:43:39.478Z,24.20
2023-03-10T01:46:27.876Z,23.93
2023-03-10T01:49:01.199Z,23.37
2023-03-10T01:51:29.939Z,23.87
2023-03-10T01:53:56.410Z,23.67
2023-03-10T01:56:23.186Z,22.63
2023-03-10T01:58:49.869Z,24.67
2023-03-10T02:01:17.341Z,24.33
2023-03-10T02:04:09.577Z,22.77
2023-03-10T02:06:36.376Z,22.40
2023-03-10T02:09:04.608Z,23.33
2023-03-10T02:11:31.233Z,22.90
2023-03-10T02:13:57.702Z,21.57
2023-03-10T02:16:24.309Z,21.57
2023-03-10T02:18:51.016Z,21.50
2023-03-10T02:21:17.453Z,20.00
2023-03-10T02:24:00.871Z,22.00
2023-03-10T02:26:46.198Z,20.40
2023-03-10T02:29:18.897Z,20.77
2023-03-10T02:31:46.058Z,19.03
2023-03-10T02:34:13.582Z,21.03
2023-03-10T02:36:40.129Z,20.23
2023-03-10T02:39:07.145Z,20.70
2023-03-10T02:41:37.950Z,20.20
2023-03-10T02:44:12.122Z,20.67
2023-03-10T02:46:38.748Z,22.37
2023-03-10T02:49:07.541Z,21.10
2023-03-10T02:51:36.044Z,21.40
2023-03-10T02:54:03.019Z,22.17
2023-03-10T02:56:32.214Z,22.83
2023-03-10T02:58:59.272Z,23.30
2023-03-10T03:01:26.817Z,22.50
2023-03-10T03:03:54.628Z,22.20
2023-03-10T03:06:21.421Z,22.03
2023-03-10T03:08:48.977Z,23.23
2023-03-10T03:11:17.013Z,22.53
2023-03-10T03:13:43.536Z,20.77
2023-03-10T03:16:10.571Z,20.17
2023-03-10T03:18:37.545Z,22.67
2023-03-10T03:21:10.919Z,22.17
2023-03-10T03:23:38.221Z,23.60
2023-03-10T03:26:05.738Z,22.60
2023-03-10T03:28:32.275Z,20.13
2023-03-10T03:30:59.135Z,22.10
2023-03-10T03:33:25.585Z,22.13
2023-03-10T03:35:52.092Z,23.33
2023-03-10T03:38:18.657Z,23.40
2023-03-10T03:40:45.529Z,22.90
2023-03-10T03:43:12.880Z,21.93
2023-03-10T03:45:39.533Z,23.07
2023-03-10T03:48:06.099Z,22.97
2023-03-10T03:50:32.586Z,22.77
2023-03-10T03:52:59.070Z,23.03
2023-03-10T03:55:25.543Z,23.40
2023-03-10T03:57:52.251Z,22.40
2023-03-10T04:00:22.247Z,23.77
2023-03-10T04:02:48.959Z,23.70
2023-03-10T04:05:16.251Z,24.13
2023-03-10T04:07:43.028Z,24.00
2023-03-10T04:10:11.732Z,21.73
2023-03-10T04:12:38.452Z,22.83
2023-03-10T04:15:05.700Z,24.87
2023-03-10T04:17:32.142Z,24.87
2023-03-10T04:20:06.977Z,22.20
2023-03-10T04:22:35.509Z,22.73
2023-03-10T04:25:02.705Z,21.03
2023-03-10T04:27:29.199Z,22.57
2023-03-10T04:29:55.754Z,22.70
2023-03-10T04:32:22.254Z,20.13
2023-03-10T04:34:48.748Z,22.07
2023-03-10T04:37:15.552Z,21.27
2023-03-10T04:39:42.196Z,21.50
2023-03-10T04:42:08.969Z,21.07
2023-03-10T04:44:35.528Z,20.93
2023-03-10T04:47:02.368Z,18.40
2023-03-10T04:49:29.631Z,18.53
2023-03-10T04:51:56.147Z,18.87
2023-03-10T04:54:22.629Z,18.60
2023-03-10T04:56:49.101Z,16.27
2023-03-10T04:59:15.669Z,17.10
2023-03-10T05:01:42.229Z,16.77
2023-03-10T05:04:10.177Z,16.77
2023-03-10T05:06:36.718Z,15.30
2023-03-10T05:09:04.891Z,17.10
2023-03-10T05:11:32.162Z,16.27
2023-03-10T05:13:58.749Z,17.17
2023-03-10T05:16:25.509Z,18.43
2023-03-10T05:18:52.265Z,18.27
2023-03-10T05:21:18.805Z,18.53
2023-03-10T05:23:45.246Z,19.40
2023-03-10T05:26:12.008Z,20.27
2023-03-10T05:28:38.650Z,19.40
2023-03-10T05:31:14.247Z,18.43
2023-03-10T05:33:41.156Z,18.37
2023-03-10T05:36:09.103Z,19.13
2023-03-10T05:38:36.759Z,19.40
2023-03-10T05:41:06.895Z,19.10
2023-03-10T05:43:33.391Z,19.80
2023-03-10T05:46:00.051Z,19.70
2023-03-10T05:48:26.687Z,17.97
2023-03-10T05:51:00.667Z,19.00
2023-03-10T05:53:27.765Z,19.63
2023-03-10T05:55:56.343Z,17.47
2023-03-10T05:58:24.332Z,18.37
2023-03-10T06:00:51.392Z,17.10
2023-03-10T06:03:18.632Z,15.07
2023-03-10T06:05:45.579Z,15.27
2023-03-10T06:08:12.074Z,16.17
2023-03-10T06:10:38.610Z,16.27
2023-03-10T06:13:05.145Z,17.10
2023-03-10T06:15:31.667Z,17.17
2023-03-10T06:17:58.271Z,13.80
2023-03-10T06:20:24.879Z,14.67
2023-03-10T06:22:54.628Z,15.37
2023-03-10T06:25:21.418Z,16.60
2023-03-10T06:27:48.105Z,14.60
2023-03-10T06:30:15.696Z,14.53
2023-03-10T06:32:42.373Z,13.97
2023-03-10T06:35:12.552Z,15.20
2023-03-10T06:37:39.007Z,14.83
2023-03-10T06:40:08.102Z,11.33
2023-03-10T06:42:34.623Z,16.07
2023-03-10T06:45:01.291Z,14.03
2023-03-10T06:47:27.726Z,16.07
2023-03-10T06:49:54.833Z,13.70
2023-03-10T06:52:21.418Z,14.30
2023-03-10T06:54:47.909Z,13.00
2023-03-10T06:57:14.350Z,12.90
2023-03-10T06:59:40.868Z,14.47
2023-03-10T07:02:07.535Z,14.97
2023-03-10T07:04:34.070Z,15.23
2023-03-10T07:07:00.563Z,16.03
2023-03-10T07:09:27.012Z,18.43
2023-03-10T07:11:53.483Z,13.97
2023-03-10T07:14:19.964Z,15.87
2023-03-10T07:16:46.726Z,14.40
2023-03-10T07:19:13.709Z,13.73
2023-03-10T07:21:40.316Z,10.43
2023-03-10T07:24:06.948Z,13.37
2023-03-10T07:26:33.578Z,13.37
2023-03-10T07:29:02.419Z,13.83
2023-03-10T07:31:29.205Z,15.40
2023-03-10T07:33:55.727Z,14.30
2023-03-10T07:36:22.538Z,15.33
2023-03-10T07:38:49.041Z,14.73
2023-03-10T07:41:17.952Z,20.00
2023-03-10T07:43:44.420Z,14.97
2023-03-10T07:46:12.978Z,15.10
2023-03-10T07:48:39.578Z,15.13
2023-03-10T07:51:06.301Z,13.63
2023-03-10T07:53:33.205Z,13.90
2023-03-10T07:55:59.683Z,14.13
2023-03-10T07:58:26.227Z,18.13
2023-03-10T08:00:57.111Z,13.83
2023-03-10T08:03:25.317Z,15.67
2023-03-10T08:05:52.143Z,13.70
2023-03-10T08:08:19.166Z,13.73
2023-03-10T08:10:45.855Z,14.50
2023-03-10T08:13:12.629Z,14.37
2023-03-10T08:15:40.145Z,14.20
2023-03-10T08:18:07.779Z,14.20
2023-03-10T08:20:37.879Z,14.17
2023-03-10T08:23:04.885Z,14.03
2023-03-10T08:25:31.394Z,15.23
2023-03-10T08:27:58.023Z,14.47
2023-03-10T08:30:24.655Z,14.47
2023-03-10T08:32:51.237Z,14.03
2023-03-10T08:35:18.212Z,14.40
2023-03-10T08:37:44.746Z,14.73
2023-03-10T08:40:13.828Z,14.83
2023-03-10T08:42:40.532Z,14.10
2023-03-10T08:45:08.836Z,14.47
2023-03-10T08:47:35.641Z,14.17
2023-03-10T08:50:02.285Z,12.90
2023-03-10T08:52:28.758Z,14.73
2023-03-10T08:54:55.234Z,13.87
2023-03-10T08:57:22.156Z,14.63
2023-03-10T08:59:48.656Z,14.93
2023-03-10T09:02:15.821Z,14.83
2023-03-10T09:04:42.670Z,15.77
2023-03-10T09:07:09.877Z,18.60
2023-03-10T09:09:36.600Z,15.80
2023-03-10T09:12:03.923Z,17.97
2023-03-10T09:14:30.427Z,16.17
2023-03-10T09:16:57.140Z,16.37
2023-03-10T09:19:25.312Z,17.23
2023-03-10T09:21:53.035Z,15.70
2023-03-10T09:24:19.996Z,14.93
2023-03-10T09:26:46.667Z,15.50
2023-03-10T09:29:14.185Z,16.23
2023-03-10T09:31:41.274Z,14.33
2023-03-10T09:34:08.414Z,15.73
2023-03-10T09:36:39.649Z,15.57
2023-03-10T09:39:06.235Z,18.13
2023-03-10T09:42:01.155Z,16.20
2023-03-10T09:44:47.234Z,15.10
2023-03-10T09:48:05.003Z,15.87
2023-03-10T09:50:43.984Z,15.63
2023-03-10T09:53:31.888Z,15.97
2023-03-10T09:55:58.675Z,15.17
2023-03-10T09:58:41.310Z,14.57
2023-03-10T10:01:16.019Z,16.77
2023-03-10T10:03:54.396Z,12.20
2023-03-10T10:06:28.047Z,14.20
2023-03-10T10:09:13.855Z,13.93
2023-03-10T10:11:40.339Z,11.40
2023-03-10T10:14:28.532Z,11.77
2023-03-10T10:17:47.340Z,12.53
2023-03-10T10:20:25.860Z,12.30
2023-03-10T10:22:52.373Z,11.20
2023-03-10T10:25:24.337Z,11.13
2023-03-10T10:27:53.543Z,11.93
2023-03-10T10:30:31.016Z,11.40
2023-03-10T10:32:58.429Z,16.43
2023-03-10T10:35:27.318Z,13.60
2023-03-10T10:38:18.476Z,11.87
2023-03-10T10:40:58.625Z,12.50
2023-03-10T10:43:25.231Z,20.33
2023-03-10T10:46:04.579Z,15.80
2023-03-10T10:48:46.145Z,19.27
2023-03-10T10:51:18.688Z,13.93
2023-03-10T10:53:45.909Z,11.17
2023-03-10T10:56:20.084Z,13.60
2023-03-10T10:59:31.829Z,12.57
2023-03-10T11:02:22.758Z,13.13
2023-03-10T11:04:49.431Z,11.50
2023-03-10T11:07:34.004Z,12.77
2023-03-10T11:10:00.478Z,10.37
2023-03-10T11:12:31.347Z,13.57
2023-03-10T11:15:20.332Z,11.20
2023-03-10T11:17:51.296Z,20.77
2023-03-10T11:20:30.853Z,9.43
2023-03-10T11:22:57.275Z,10.20
2023-03-10T11:25:29.440Z,13.27
2023-03-10T11:28:20.869Z,22.87
2023-03-10T11:31:26.026Z,9.53
2023-03-10T11:33:59.420Z,10.87
2023-03-10T11:36:55.526Z,10.53
2023-03-10T11:39:32.813Z,9.83
2023-03-10T11:42:05.729Z,10.40
2023-03-10T11:44:41.751Z,10.43
2023-03-10T11:47:26.458Z,10.07
2023-03-10T11:50:02.463Z,10.23
2023-03-10T11:52:29.655Z,8.67
2023-03-10T11:55:01.905Z,9.63
2023-03-10T11:57:32.633Z,9.77
2023-03-10T12:00:05.738Z,9.60
2023-03-10T12:02:46.206Z,10.47
2023-03-10T12:05:22.909Z,9.73
2023-03-10T12:07:51.967Z,9.30
2023-03-10T12:10:21.246Z,9.47
2023-03-10T12:12:49.824Z,10.83
2023-03-10T12:15:36.947Z,9.60
2023-03-10T12:18:04.762Z,10.07
2023-03-10T12:20:33.118Z,9.70
2023-03-10T12:22:59.581Z,9.40
2023-03-10T12:25:29.296Z,9.70
2023-03-10T12:28:17.143Z,9.10
2023-03-10T12:30:46.880Z,9.37
2023-03-10T12:33:41.245Z,8.03
2023-03-10T12:36:32.655Z,8.47
2023-03-10T12:39:01.000Z,8.93
2023-03-10T12:41:27.418Z,10.10
2023-03-10T12:43:57.697Z,11.73
2023-03-10T12:46:40.685Z,9.67
2023-03-10T12:49:13.448Z,9.70
2023-03-10T12:51:44.688Z,8.93
2023-03-10T12:54:32.406Z,9.10
2023-03-10T12:57:10.127Z,8.93
2023-03-10T12:59:59.847Z,8.07
2023-03-10T13:02:49.098Z,8.60
2023-03-10T13:05:22.864Z,8.30
2023-03-10T13:07:52.322Z,9.00
2023-03-10T13:10:22.877Z,8.20
2023-03-10T13:12:51.578Z,8.30
2023-03-10T13:15:24.940Z,8.60
2023-03-10T13:17:52.335Z,9.07
2023-03-10T13:20:19.486Z,9.90
2023-03-10T13:22:57.070Z,9.80
2023-03-10T13:25:24.867Z,8.50
2023-03-10T13:27:52.552Z,8.57
2023-03-10T13:30:24.233Z,8.33
2023-03-10T13:33:02.057Z,9.20
2023-03-10T13:35:36.904Z,9.63
2023-03-10T13:38:11.892Z,10.17
2023-03-10T13:40:41.600Z,10.53
2023-03-10T13:43:36.974Z,9.40
2023-03-10T13:46:09.703Z,9.00
2023-03-10T13:48:36.819Z,9.60
2023-03-10T13:51:17.259Z,8.73
2023-03-10T13:53:44.459Z,9.90
2023-03-10T13:56:21.511Z,9.63
2023-03-10T13:58:49.185Z,9.67
2023-03-10T14:01:25.084Z,9.30
2023-03-10T14:04:05.974Z,8.87
2023-03-10T14:06:32.582Z,8.20
2023-03-10T14:09:31.611Z,7.50
2023-03-10T14:11:58.082Z,12.17
2023-03-10T14:14:31.711Z,11.37
2023-03-10T14:17:06.790Z,9.90
2023-03-10T14:19:47.751Z,8.60
2023-03-10T14:22:25.797Z,9.77
2023-03-10T14:24:52.332Z,9.60
2023-03-10T14:27:19.281Z,7.83
2023-03-10T14:29:50.936Z,8.17
2023-03-10T14:32:17.901Z,7.97
2023-03-10T14:34:44.808Z,8.37
2023-03-10T14:37:11.301Z,8.57
2023-03-10T14:39:37.816Z,8.87
2023-03-10T14:42:04.718Z,7.17
2023-03-10T14:44:31.919Z,8.50
2023-03-10T14:46:59.565Z,9.07
2023-03-10T14:49:27.304Z,8.23
2023-03-10T14:51:54.071Z,7.40
2023-03-10T14:54:23.835Z,8.00
2023-03-10T14:56:59.827Z,6.97
2023-03-10T14:59:28.281Z,8.30
2023-03-10T15:01:58.675Z,8.53
2023-03-10T15:04:26.004Z,7.37
2023-03-10T15:06:53.091Z,8.20
2023-03-10T15:09:19.946Z,8.13
2023-03-10T15:11:46.564Z,7.27
2023-03-10T15:14:18.858Z,8.40
2023-03-10T15:16:45.620Z,7.37
2023-03-10T15:19:18.672Z,7.97
2023-03-10T15:21:45.106Z,10.00
2023-03-10T15:24:11.590Z,7.37
2023-03-10T15:26:38.082Z,9.00
2023-03-10T15:29:04.861Z,9.13
2023-03-10T15:31:31.513Z,7.87
2023-03-10T15:33:58.048Z,8.53
2023-03-10T15:36:24.487Z,8.63
2023-03-10T15:38:52.840Z,7.83
2023-03-10T15:41:19.439Z,7.53
2023-03-10T15:43:45.937Z,7.50
2023-03-10T15:46:12.623Z,8.37
2023-03-10T15:48:39.499Z,8.03
2023-03-10T15:51:10.752Z,10.17
2023-03-10T15:53:37.406Z,9.37
2023-03-10T15:56:08.183Z,11.47
2023-03-10T15:58:35.168Z,10.00
2023-03-10T16:01:09.771Z,9.97
2023-03-10T16:03:38.339Z,7.53
2023-03-10T16:06:05.982Z,10.87
2023-03-10T16:08:37.289Z,10.17
2023-03-10T16:11:06.427Z,8.73
2023-03-10T16:13:39.518Z,7.40
2023-03-10T16:16:07.599Z,8.17
2023-03-10T16:18:34.498Z,7.17
2023-03-10T16:21:02.292Z,9.20
2023-03-10T16:23:31.132Z,8.00
2023-03-10T16:26:11.235Z,7.70
2023-03-10T16:28:40.498Z,9.47
2023-03-10T16:31:07.400Z,7.00
2023-03-10T16:33:34.305Z,8.30
2023-03-10T16:36:02.262Z,8.43
2023-03-10T16:38:29.927Z,8.17
2023-03-10T16:40:57.995Z,9.00
2023-03-10T16:43:27.964Z,9.43
2023-03-10T16:46:13.918Z,10.03
2023-03-10T16:48:43.489Z,17.67
2023-03-10T16:51:23.704Z,12.37
2023-03-10T16:53:50.782Z,12.67
2023-03-10T16:56:17.488Z,10.97
2023-03-10T16:58:45.331Z,14.03
2023-03-10T17:01:11.903Z,9.97
2023-03-10T17:03:41.492Z,8.17
2023-03-10T17:06:13.471Z,7.27
2023-03-10T17:08:40.734Z,9.27
2023-03-10T17:11:20.791Z,8.03
2023-03-10T17:13:49.564Z,8.30
2023-03-10T17:16:18.489Z,7.63
2023-03-10T17:18:44.975Z,7.97
2023-03-10T17:21:22.937Z,7.73
2023-03-10T17:23:50.489Z,8.10
2023-03-10T17:26:18.369Z,7.40
2023-03-10T17:28:46.879Z,7.43
2023-03-10T17:31:16.037Z,7.83
2023-03-10T17:33:43.589Z,7.77
2023-03-10T17:36:12.608Z,8.17
2023-03-10T17:38:39.815Z,7.50
2023-03-10T17:41:07.686Z,7.53
2023-03-10T17:43:35.001Z,7.77
2023-03-10T17:46:13.750Z,8.13
2023-03-10T17:48:40.302Z,7.80
2023-03-10T17:51:07.022Z,6.90
2023-03-10T17:53:33.591Z,8.17
2023-03-10T17:56:05.043Z,8.07
2023-03-10T17:58:32.316Z,7.93
2023-03-10T18:00:58.834Z,9.33
2023-03-10T18:03:25.436Z,8.30
2023-03-10T18:05:51.987Z,8.07
2023-03-10T18:08:18.744Z,8.50
2023-03-10T18:10:45.290Z,7.43
2023-03-10T18:13:11.926Z,7.73
2023-03-10T18:15:38.776Z,9.13
2023-03-10T18:18:05.360Z,8.40
2023-03-10T18:20:32.071Z,8.43
2023-03-10T18:22:59.226Z,8.83
2023-03-10T18:25:25.765Z,8.10
2023-03-10T18:27:52.208Z,9.27
2023-03-10T18:30:20.341Z,9.57
2023-03-10T18:32:46.907Z,5.90
2023-03-10T18:35:13.500Z,7.53
2023-03-10T18:37:39.987Z,7.27
2023-03-10T18:40:09.224Z,7.67
2023-03-10T18:42:35.774Z,7.60
2023-03-10T18:45:02.503Z,8.37
2023-03-10T18:47:28.980Z,8.63
2023-03-10T18:49:55.451Z,7.83
2023-03-10T18:52:22.045Z,7.07
2023-03-10T18:54:48.797Z,8.03
2023-03-10T18:57:15.740Z,8.50
2023-03-10T18:59:44.917Z,7.80
2023-03-10T19:02:15.003Z,7.47
2023-03-10T19:04:41.524Z,7.00
2023-03-10T19:07:08.542Z,6.97
2023-03-10T19:09:35.645Z,6.23
2023-03-10T19:12:02.198Z,6.53
2023-03-10T19:14:28.670Z,6.97
2023-03-10T19:16:55.217Z,6.87
2023-03-10T19:19:21.743Z,6.57
2023-03-10T19:21:48.585Z,7.00
2023-03-10T19:24:15.100Z,7.23
2023-03-10T19:26:43.419Z,7.03
2023-03-10T19:29:10.055Z,6.63
2023-03-10T19:31:36.593Z,7.30
2023-03-10T19:34:03.324Z,6.90
2023-03-10T19:36:29.904Z,5.70
2023-03-10T19:38:56.388Z,6.67
2023-03-10T19:41:23.589Z,8.20
2023-03-10T19:43:51.158Z,6.97
2023-03-10T19:46:18.479Z,11.27
2023-03-10T19:48:45.499Z,9.07
2023-03-10T19:51:21.470Z,9.07
2023-03-10T19:53:48.057Z,7.57
2023-03-10T19:56:17.472Z,7.03
2023-03-10T19:58:45.836Z,6.10
2023-03-10T20:01:14.318Z,7.50
2023-03-10T20:03:41.192Z,7.10
2023-03-10T20:06:07.990Z,8.10
2023-03-10T20:08:34.731Z,8.57
2023-03-10T20:11:02.328Z,8.80
2023-03-10T20:13:29.932Z,9.23
2023-03-10T20:15:57.313Z,9.50
2023-03-10T20:18:24.085Z,10.30
2023-03-10T20:20:51.028Z,8.93
2023-03-10T20:23:17.838Z,12.97
2023-03-10T20:25:45.586Z,15.77
2023-03-10T20:28:13.116Z,16.30
2023-03-10T20:30:41.129Z,9.73
2023-03-10T20:33:07.916Z,8.60
2023-03-10T20:35:34.752Z,10.33
2023-03-10T20:38:02.122Z,10.07
2023-03-10T20:40:28.686Z,9.50
2023-03-10T20:42:56.812Z,10.33
2023-03-10T20:45:23.642Z,9.40
2023-03-10T20:47:50.292Z,8.97
2023-03-10T20:50:17.491Z,7.40
2023-03-10T20:52:44.556Z,8.07
2023-03-10T20:55:20.973Z,15.83
2023-03-10T20:57:48.794Z,14.50
2023-03-10T21:00:16.763Z,11.67
2023-03-10T21:02:44.568Z,11.77
2023-03-10T21:05:11.929Z,9.57
2023-03-10T21:07:38.575Z,11.17
2023-03-10T21:10:07.395Z,10.73
2023-03-10T21:12:33.934Z,9.80
2023-03-10T21:15:00.667Z,12.63
2023-03-10T21:17:27.876Z,10.53
2023-03-10T21:19:54.834Z,14.63
2023-03-10T21:22:21.594Z,11.70
2023-03-10T21:24:49.153Z,13.17
2023-03-10T21:27:16.349Z,12.23
2023-03-10T21:29:43.096Z,14.27
2023-03-10T21:32:09.588Z,14.20
2023-03-10T21:34:36.032Z,11.83
2023-03-10T21:37:02.600Z,11.23
2023-03-10T21:39:29.152Z,11.27
2023-03-10T21:41:55.605Z,10.87
2023-03-10T21:44:22.112Z,12.70
2023-03-10T21:46:50.281Z,11.83
2023-03-10T21:49:17.183Z,10.90
2023-03-10T21:51:43.621Z,10.40
2023-03-10T21:54:10.378Z,11.63
2023-03-10T21:56:36.809Z,11.37
2023-03-10T21:59:03.308Z,10.93
2023-03-10T22:01:30.009Z,12.57
2023-03-10T22:03:56.729Z,13.37
2023-03-10T22:06:23.290Z,14.23
2023-03-10T22:08:49.808Z,16.17
2023-03-10T22:11:17.014Z,11.37
2023-03-10T22:13:43.575Z,11.00
2023-03-10T22:16:14.256Z,10.60
2023-03-10T22:18:40.753Z,11.20
2023-03-10T22:21:07.222Z,11.80
2023-03-10T22:23:33.726Z,11.47
2023-03-10T22:26:00.196Z,10.53
2023-03-10T22:28:26.700Z,11.20
2023-03-10T22:30:53.382Z,15.57
2023-03-10T22:33:19.934Z,13.37
2023-03-10T22:35:51.919Z,12.53
2023-03-10T22:38:20.352Z,11.83
2023-03-10T22:40:46.971Z,11.37
2023-03-10T22:43:13.848Z,11.37
2023-03-10T22:45:41.802Z,11.70
2023-03-10T22:48:08.513Z,10.80
2023-03-10T22:50:38.556Z,10.57
2023-03-10T22:53:07.679Z,10.33
2023-03-10T22:55:37.040Z,9.50
2023-03-10T22:58:05.324Z,10.73
2023-03-10T23:00:32.708Z,9.93
2023-03-10T23:02:59.601Z,10.60
2023-03-10T23:05:26.994Z,10.40
2023-03-10T23:07:54.050Z,10.53
2023-03-10T23:10:26.393Z,9.67
2023-03-10T23:12:53.791Z,10.30
2023-03-10T23:15:25.316Z,9.30
2023-03-10T23:17:55.883Z,8.97
2023-03-10T23:20:26.976Z,10.30
2023-03-10T23:22:54.273Z,10.00
2023-03-10T23:25:24.080Z,10.67
2023-03-10T23:27:50.561Z,9.27
2023-03-10T23:30:17.614Z,9.97
2023-03-10T23:32:45.685Z,9.77
2023-03-10T23:35:13.847Z,9.77
2023-03-10T23:37:40.364Z,10.37
2023-03-10T23:40:11.604Z,11.17
2023-03-10T23:42:38.731Z,10.70
2023-03-10T23:45:06.960Z,11.67
2023-03-10T23:47:34.719Z,11.50
2023-03-10T23:50:01.504Z,12.17
2023-03-10T23:52:28.071Z,11.30
2023-03-10T23:54:54.678Z,11.67
2023-03-10T23:57:21.121Z,11.30
2023-03-10T23:59:48.544Z,12.20
